Lantana, FL

3:59 PM EST on February 13, 2016 (GMT -0500)
Island Estates | | Change Station
CLOSE
Current Station
Personal Weather Station
Location: Lantana, FL
Elevation: 45 ft
Nearby Weather Stations

Elev 45 ft 26.57 °N, 80.08 °W | Updated 4 minutes ago

Partly Cloudy
Partly Cloudy
71.0 °F
Feels Like 76 °F
N
5.0
Wind Variable Wind from NNE
Gusts 9.0 mph

Today
High -- | Low -- °F
--% Chance of Precip.
Yesterday
High -- | Low -- °F
Precip. -- in
Pressure 30.17 in
Visibility 10.0 miles
Clouds Scattered Clouds 5500 ft
Heat Index 76 °F
Dew Point 56 °F
Humidity 59%
Rainfall 0.00 in
Snow Depth Not available.
6:58 AM 6:11 PM
Waxing Crescent, 34% visible
METAR KPBI 132053Z 01010KT 10SM SCT055 22/11 A3017 RMK AO2 SLP214 T02220106 55014 $
Pressure 30.17 in
Visibility 10.0 miles
Clouds Scattered Clouds 5500 ft
Heat Index 76 °F
Dew Point 56 °F
Humidity 59%
Rainfall 0.00 in
Snow Depth Not available.
6:58 AM 6:11 PM
Waxing Crescent, 34% visible
METAR KPBI 132053Z 01010KT 10SM SCT055 22/11 A3017 RMK AO2 SLP214 T02220106 55014 $

10-Day Weather Forecast

Almanac

Astronomy

Feb. 13, 2016 Rise Set
Actual Time
Civil Twilight
Nautical Twilight
Astronomical Twilight
Moon
Length of Visible Light
Length of Day
Tomorrow will be .
, % of the Moon is Illuminated

Today's Extremes

State Highs State Lows

Community

WunderPhotos

Upload Photos

1,892,666 photos uploaded!

WunderBlog® & News

Nearby

Air Quality

  Air Quality AQ Index Pollutant
Not available.

Snow Depth

Station Depth Elevation

Earthquake Activity

City Distance Mag. Time & Date
Minimum magnitude displayed is 2.5.

Coastal Water Temperatures

Place Temperature

Stations

Nearby Weather Stations

Station Location Temp. Windchill Dew Point Humidity Wind Precip. Elev Updated Type
                   

Watches & Warnings

There are currently no watches in effect.